Time;durP1;ratioP1;P1;durP2;ratioP2;P2;SDS_P1;SDS_P2;PMS_P1;PMS_P2;Temp;Humidity;BMP_temperature;BMP_pressure;BME280_temperature;BME280_humidity;BME280_pressure;Samples;Min_cycle;Max_cycle;Signal;HPM_P1;HPM_P2
2021/08/03 00:02:26;;;;;;;11.75;10.10;;;;;;;20.55;77.44;98678.94;5113699;28;20070;-47
2021/08/03 00:04:58;;;;;;;14.63;9.90;;;;;;;20.54;77.23;98680.00;5113302;28;20558;-51
2021/08/03 00:07:25;;;;;;;13.10;9.57;;;;;;;20.47;77.51;98680.84;5113943;28;20027;-48
2021/08/03 00:09:54;;;;;;;17.15;10.52;;;;;;;20.49;77.58;98689.59;5112720;28;20093;-48
2021/08/03 00:12:20;;;;;;;11.35;9.60;;;;;;;20.43;77.53;98686.94;5113345;28;20036;-49
2021/08/03 00:14:48;;;;;;;14.45;9.95;;;;;;;20.43;77.90;98701.34;5113435;28;20030;-51
2021/08/03 00:17:18;;;;;;;14.20;9.85;;;;;;;20.41;77.42;98697.19;5113295;28;20147;-47
2021/08/03 00:19:45;;;;;;;12.15;9.50;;;;;;;20.35;77.69;98698.91;5112805;28;20028;-50
2021/08/03 00:22:12;;;;;;;11.85;8.60;;;;;;;20.33;77.36;98695.56;5112629;28;20344;-51
2021/08/03 00:24:41;;;;;;;12.85;8.50;;;;;;;20.30;77.01;98696.00;5112442;28;20039;-47
2021/08/03 00:27:08;;;;;;;11.07;8.75;;;;;;;20.29;76.99;98706.00;5112895;28;20451;-48
2021/08/03 00:29:36;;;;;;;12.82;8.13;;;;;;;20.30;77.06;98706.88;5113078;28;20035;-48
2021/08/03 00:32:03;;;;;;;10.23;7.80;;;;;;;20.22;76.22;98708.75;5112963;28;20438;-48
2021/08/03 00:34:29;;;;;;;14.75;9.10;;;;;;;20.20;76.85;98707.31;5113273;28;20035;-48
2021/08/03 00:36:54;;;;;;;11.80;9.25;;;;;;;20.21;76.79;98708.97;5072122;28;20032;-47
2021/08/03 00:39:22;;;;;;;12.93;7.97;;;;;;;20.20;76.97;98712.75;5072008;28;20082;-50
2021/08/03 00:41:58;;;;;;;13.07;8.13;;;;;;;20.18;77.05;98721.09;5084992;28;20040;-49
2021/08/03 00:44:44;;;;;;;16.75;8.30;;;;;;;20.23;76.53;98729.44;5092186;28;20483;-47
2021/08/03 00:47:11;;;;;;;11.43;7.57;;;;;;;20.00;76.72;98718.22;5091598;28;20032;-47
2021/08/03 00:49:38;;;;;;;10.18;7.05;;;;;;;20.03;77.04;98731.41;5091980;28;20464;-49
2021/08/03 00:52:04;;;;;;;12.43;7.40;;;;;;;19.88;76.96;98716.16;5092498;28;20024;-49
2021/08/03 00:54:30;;;;;;;12.48;7.28;;;;;;;19.94;77.19;98730.78;5092292;28;20499;-52
2021/08/03 00:56:56;;;;;;;10.60;7.30;;;;;;;19.94;77.08;98738.94;5092091;28;20115;-49
2021/08/03 00:59:22;;;;;;;11.25;7.30;;;;;;;19.90;77.34;98735.78;5091611;28;20444;-45
2021/08/03 01:01:47;;;;;;;12.52;7.30;;;;;;;19.87;76.90;98735.34;5091311;28;20081;-46
2021/08/03 01:04:14;;;;;;;7.93;6.60;;;;;;;19.88;76.79;98746.03;5092202;28;20408;-46
2021/08/03 01:06:51;;;;;;;6.65;6.03;;;;;;;19.89;75.96;98742.25;5091538;28;20430;-46
2021/08/03 01:09:26;;;;;;;8.85;6.43;;;;;;;19.91;76.35;98755.66;5092247;28;20032;-50
2021/08/03 01:11:59;;;;;;;8.77;6.60;;;;;;;19.86;76.11;98756.25;5092361;28;20479;-48
2021/08/03 01:14:36;;;;;;;9.25;6.18;;;;;;;19.86;76.04;98752.69;5092327;28;20032;-48
2021/08/03 01:17:48;;;;;;;8.77;5.93;;;;;;;19.92;75.94;98765.50;5093309;28;20050;-46
2021/08/03 01:20:27;;;;;;;9.18;5.63;;;;;;;19.87;75.65;98763.38;5077888;28;20131;-49
2021/08/03 01:22:56;;;;;;;9.13;5.68;;;;;;;19.79;75.67;98760.88;5091309;28;20044;-47
2021/08/03 01:25:43;;;;;;;9.73;5.97;;;;;;;19.75;75.98;98765.03;5091590;28;20036;-48
2021/08/03 01:28:27;;;;;;;6.82;5.15;;;;;;;19.73;75.67;98756.25;5091659;28;20070;-46
2021/08/03 01:30:58;;;;;;;6.82;5.05;;;;;;;19.65;75.76;98768.16;5091670;28;20387;-50
2021/08/03 01:33:27;;;;;;;8.88;5.13;;;;;;;19.58;75.72;98770.91;5091906;28;20150;-47
2021/08/03 01:35:59;;;;;;;8.75;5.32;;;;;;;19.56;75.85;98775.72;5073379;28;20031;-49
2021/08/03 01:38:27;;;;;;;7.43;4.78;;;;;;;19.50;76.04;98771.94;5091468;28;20024;-49
2021/08/03 01:40:59;;;;;;;5.63;3.67;;;;;;;19.35;75.56;98757.72;5090486;28;20031;-47
2021/08/03 01:43:25;;;;;;;6.50;4.32;;;;;;;19.41;75.89;98780.50;5091537;28;20028;-47
2021/08/03 01:46:01;;;;;;;5.00;4.30;;;;;;;19.39;75.23;98791.53;5090990;28;20251;-50
2021/08/03 01:48:29;;;;;;;7.07;4.00;;;;;;;19.37;75.03;98790.91;5091168;28;20115;-48
2021/08/03 01:50:55;;;;;;;6.25;4.20;;;;;;;19.33;75.57;98784.25;5091238;28;20073;-49
2021/08/03 01:53:24;;;;;;;6.55;4.80;;;;;;;19.35;75.76;98796.56;5091646;28;20024;-49
2021/08/03 01:55:53;;;;;;;8.73;4.68;;;;;;;19.35;75.64;98788.44;5090966;28;20038;-49
2021/08/03 01:58:20;;;;;;;6.72;4.78;;;;;;;19.32;75.97;98786.13;5091535;28;20032;-50
2021/08/03 02:00:46;;;;;;;8.88;4.90;;;;;;;19.36;76.14;98789.25;5090396;28;20111;-50
2021/08/03 02:03:13;;;;;;;9.38;5.43;;;;;;;19.35;75.95;98790.28;5091329;28;20059;-50
2021/08/03 02:05:40;;;;;;;6.90;4.40;;;;;;;19.40;75.74;98795.09;5090650;28;20035;-48
2021/08/03 02:08:06;;;;;;;6.53;4.80;;;;;;;19.39;75.61;98805.13;5091380;28;20070;-51
2021/08/03 02:10:33;;;;;;;6.72;4.75;;;;;;;19.34;75.65;98802.19;5091139;28;20032;-46
2021/08/03 02:12:58;;;;;;;6.93;4.65;;;;;;;19.36;75.99;98810.97;5091273;28;20074;-50
2021/08/03 02:15:24;;;;;;;7.20;4.93;;;;;;;19.40;75.61;98804.06;5090969;28;20032;-50
2021/08/03 02:17:49;;;;;;;5.65;4.70;;;;;;;19.46;75.24;98800.56;5091106;28;20044;-50
2021/08/03 02:20:15;;;;;;;5.38;4.70;;;;;;;19.50;74.72;98798.25;5090523;28;20036;-48
2021/08/03 02:22:40;;;;;;;6.63;5.00;;;;;;;19.53;74.51;98805.97;5090204;28;20032;-47
2021/08/03 02:25:09;;;;;;;8.30;4.78;;;;;;;19.55;74.46;98814.75;5091218;28;20024;-53
2021/08/03 02:27:36;;;;;;;6.07;4.82;;;;;;;19.57;74.38;98818.09;5091083;28;20046;-46
2021/08/03 02:30:02;;;;;;;7.75;4.50;;;;;;;19.61;74.41;98830.22;5091273;28;20071;-48
2021/08/03 02:32:35;;;;;;;9.77;4.28;;;;;;;19.58;73.69;98803.47;5093012;28;20028;-52
2021/08/03 02:35:19;;;;;;;5.68;4.18;;;;;;;19.74;73.57;98818.53;5094644;28;20455;-50
2021/08/03 02:37:54;;;;;;;4.85;4.15;;;;;;;19.75;73.35;98824.78;5076956;28;20109;-48
2021/08/03 02:40:20;;;;;;;4.28;3.75;;;;;;;19.65;73.12;98815.19;5094194;28;20048;-48
2021/08/03 02:42:48;;;;;;;5.45;4.15;;;;;;;19.63;73.45;98819.13;5094003;28;20044;-46
2021/08/03 02:45:17;;;;;;;6.13;4.00;;;;;;;19.68;72.88;98826.66;5094953;28;20024;-47
2021/08/03 02:47:52;;;;;;;7.20;3.83;;;;;;;19.68;72.34;98824.78;5094567;28;20463;-50
2021/08/03 02:50:24;;;;;;;6.80;3.63;;;;;;;19.72;72.36;98823.34;5094903;28;20438;-46
2021/08/03 02:52:53;;;;;;;6.60;3.63;;;;;;;19.76;72.53;98827.28;5094459;28;20131;-44
2021/08/03 02:55:33;;;;;;;9.65;3.78;;;;;;;19.86;72.29;98826.88;5094587;28;20038;-50
2021/08/03 02:58:04;;;;;;;6.20;5.07;;;;;;;19.86;72.00;98837.75;5094078;28;20047;-47
2021/08/03 03:00:36;;;;;;;4.35;3.92;;;;;;;19.91;71.80;98839.88;5093829;28;20373;-49
2021/08/03 03:03:07;;;;;;;3.80;3.22;;;;;;;19.93;71.46;98852.19;5093538;28;20028;-45
2021/08/03 03:05:35;;;;;;;5.57;3.20;;;;;;;19.94;71.01;98851.13;5094201;28;20020;-51
2021/08/03 03:08:07;;;;;;;4.10;2.65;;;;;;;20.00;70.40;98854.06;5094161;28;20028;-48
2021/08/03 03:10:37;;;;;;;3.55;2.67;;;;;;;20.00;69.59;98854.06;5094087;28;20111;-45
2021/08/03 03:13:08;;;;;;;2.60;2.35;;;;;;;20.02;69.18;98854.72;5093979;28;20421;-48
2021/08/03 03:15:34;;;;;;;3.28;1.92;;;;;;;19.98;69.01;98857.00;5094087;28;20035;-49
2021/08/03 03:18:01;;;;;;;3.75;2.10;;;;;;;19.99;68.92;98866.81;5093825;28;20064;-51
2021/08/03 03:20:28;;;;;;;8.38;2.50;;;;;;;20.02;68.65;98873.72;5093840;28;20106;-48
2021/08/03 03:22:55;;;;;;;4.05;2.75;;;;;;;20.07;68.95;98871.22;5093024;28;20035;-45
2021/08/03 03:25:26;;;;;;;6.78;2.50;;;;;;;20.19;68.43;98877.66;5093824;28;20056;-48
2021/08/03 03:27:58;;;;;;;3.83;3.08;;;;;;;20.34;68.67;98879.34;5093991;28;20024;-54
2021/08/03 03:30:25;;;;;;;3.72;2.25;;;;;;;20.48;68.23;98875.53;5093854;28;20031;-46
2021/08/03 03:32:52;;;;;;;3.88;2.28;;;;;;;20.59;66.77;98874.06;5093653;28;20081;-45
2021/08/03 03:35:20;;;;;;;2.08;1.75;;;;;;;20.75;66.11;98885.53;5093655;28;20032;-45
2021/08/03 03:37:47;;;;;;;4.88;1.90;;;;;;;20.78;65.55;98882.38;5093342;28;20526;-49
2021/08/03 03:40:19;;;;;;;5.03;1.75;;;;;;;20.93;64.80;98885.72;5093683;28;20036;-47
2021/08/03 03:42:48;;;;;;;2.88;1.42;;;;;;;21.08;64.42;98890.88;5092044;28;20107;-44
2021/08/03 03:45:15;;;;;;;2.00;1.58;;;;;;;21.57;62.03;98893.16;5093245;28;20082;-46
2021/08/03 03:47:49;;;;;;;2.95;2.38;;;;;;;22.57;60.72;98895.34;5093538;28;20446;-49
2021/08/03 03:50:22;;;;;;;4.65;1.50;;;;;;;23.58;56.93;98897.69;5093573;28;20046;-45
2021/08/03 03:52:57;;;;;;;4.63;1.67;;;;;;;24.77;53.25;98897.88;5093220;28;20059;-46
2021/08/03 03:55:22;;;;;;;4.55;1.67;;;;;;;25.71;50.36;98894.28;5093458;28;20035;-46
2021/08/03 03:57:49;;;;;;;3.25;1.50;;;;;;;26.86;46.52;98893.06;5092935;28;20023;-51
2021/08/03 04:00:17;;;;;;;3.00;1.00;;;;;;;27.89;44.27;98898.91;5092531;28;20028;-48
2021/08/03 04:02:43;;;;;;;4.60;1.30;;;;;;;28.37;41.32;98892.72;5092194;28;20036;-50
2021/08/03 04:05:14;;;;;;;1.17;0.90;;;;;;;29.17;40.92;98905.56;5092918;28;20020;-53
2021/08/03 04:07:41;;;;;;;1.90;1.05;;;;;;;29.70;38.22;98901.88;5093652;28;20039;-47
2021/08/03 04:10:08;;;;;;;1.10;0.82;;;;;;;30.15;37.78;98909.66;5093379;28;20114;-51
2021/08/03 04:12:34;;;;;;;4.28;0.82;;;;;;;30.30;36.58;98900.53;5092788;28;20059;-45
2021/08/03 04:15:00;;;;;;;3.05;0.90;;;;;;;29.99;36.40;98917.91;5092458;28;20070;-48
2021/08/03 04:17:25;;;;;;;2.05;0.90;;;;;;;29.06;38.64;98909.41;5092343;28;20040;-50
2021/08/03 04:19:51;;;;;;;1.58;0.90;;;;;;;28.17;40.00;98938.25;5092697;28;20031;-47
2021/08/03 04:22:16;;;;;;;2.13;0.85;;;;;;;27.16;42.72;98940.44;5074558;28;20421;-51
2021/08/03 04:24:42;;;;;;;3.40;0.80;;;;;;;26.32;44.68;98941.13;5092774;28;20034;-48
2021/08/03 04:27:07;;;;;;;4.35;1.13;;;;;;;25.64;46.13;98952.81;5092800;28;20028;-53
2021/08/03 04:29:33;;;;;;;0.80;0.80;;;;;;;25.08;47.87;98950.59;5092520;28;20417;-51
2021/08/03 04:31:58;;;;;;;4.65;1.08;;;;;;;24.64;48.56;98961.06;5093214;28;20090;-49
2021/08/03 04:34:24;;;;;;;1.08;0.70;;;;;;;24.31;49.31;98971.50;5092342;28;20028;-47
2021/08/03 04:36:50;;;;;;;1.20;0.80;;;;;;;23.93;50.08;98970.78;5092586;28;20032;-53
2021/08/03 04:39:15;;;;;;;0.73;0.73;;;;;;;23.73;50.77;98983.91;5092388;28;20044;-52
2021/08/03 04:41:41;;;;;;;2.10;0.90;;;;;;;23.57;51.44;98982.66;5092450;28;20036;-53
2021/08/03 04:44:07;;;;;;;4.43;0.95;;;;;;;23.48;51.65;98990.31;5092389;28;20054;-53
2021/08/03 04:46:33;;;;;;;2.33;1.10;;;;;;;23.45;51.61;98985.31;5092708;28;20024;-49
2021/08/03 04:48:58;;;;;;;2.78;1.30;;;;;;;23.40;52.43;98982.44;5092416;28;20024;-51
2021/08/03 04:51:24;;;;;;;3.03;1.10;;;;;;;23.33;52.80;98977.88;5092302;28;20451;-48
2021/08/03 04:53:49;;;;;;;1.73;1.20;;;;;;;23.29;53.50;98973.94;5092297;28;20032;-47
2021/08/03 04:56:15;;;;;;;3.40;1.42;;;;;;;23.25;54.41;98997.31;5091836;28;20468;-48
2021/08/03 04:58:41;;;;;;;5.43;1.85;;;;;;;23.16;54.68;98990.47;5091498;28;20178;-54
2021/08/03 05:01:07;;;;;;;3.05;1.50;;;;;;;22.94;55.56;98996.34;5091743;28;20028;-49
2021/08/03 05:03:33;;;;;;;3.10;1.73;;;;;;;22.81;56.15;98991.88;5091584;28;20332;-46
2021/08/03 05:05:59;;;;;;;3.65;1.90;;;;;;;22.75;56.67;98996.31;5091745;28;20174;-49
2021/08/03 05:08:24;;;;;;;3.20;2.28;;;;;;;22.68;56.78;98989.25;5091677;28;20459;-46
2021/08/03 05:10:50;;;;;;;3.33;1.50;;;;;;;22.69;57.02;98999.09;5091786;28;20047;-47
2021/08/03 05:13:15;;;;;;;2.08;1.90;;;;;;;22.69;56.80;98999.94;5092234;28;20134;-46
2021/08/03 05:15:41;;;;;;;4.03;1.90;;;;;;;22.75;56.56;98987.28;5073401;28;20067;-53
2021/08/03 05:18:07;;;;;;;5.75;1.65;;;;;;;22.82;56.00;98976.31;5091213;28;20052;-55
2021/08/03 05:20:32;;;;;;;4.90;1.60;;;;;;;23.17;55.32;98990.22;5091144;28;20036;-49
2021/08/03 05:22:58;;;;;;;4.93;1.33;;;;;;;23.53;53.99;98998.66;5090965;28;20032;-48
2021/08/03 05:25:23;;;;;;;3.17;1.50;;;;;;;23.96;52.67;98974.13;5091194;28;20054;-47
2021/08/03 05:27:49;;;;;;;4.30;1.55;;;;;;;24.73;51.06;98994.38;5073465;28;20028;-48
2021/08/03 05:30:14;;;;;;;8.23;1.42;;;;;;;25.05;49.13;99000.34;5091460;28;20039;-48
2021/08/03 05:32:40;;;;;;;1.92;1.20;;;;;;;25.14;49.02;99000.00;5091553;28;20032;-51
2021/08/03 05:35:07;;;;;;;2.40;1.10;;;;;;;25.23;48.81;99013.06;5091276;28;20028;-47
2021/08/03 05:37:38;;;;;;;1.80;0.80;;;;;;;25.34;48.12;99000.44;5091230;28;20028;-47
2021/08/03 05:40:08;;;;;;;1.83;0.85;;;;;;;25.34;47.90;99008.66;5090377;28;20039;-46
2021/08/03 05:42:37;;;;;;;3.90;0.82;;;;;;;25.24;47.80;99019.38;5091327;28;20040;-48
2021/08/03 05:45:03;;;;;;;2.47;0.80;;;;;;;25.06;48.77;98995.72;5091280;28;20067;-47
2021/08/03 05:47:30;;;;;;;1.60;0.80;;;;;;;25.15;47.68;99018.91;5090825;28;20035;-48
2021/08/03 05:49:56;;;;;;;1.40;0.77;;;;;;;25.10;48.01;99013.31;5091197;28;20031;-51
2021/08/03 05:52:21;;;;;;;3.53;1.00;;;;;;;25.31;47.14;99020.06;5091569;28;20027;-49
2021/08/03 05:54:46;;;;;;;3.20;1.00;;;;;;;25.46;46.92;99013.25;5091238;28;20111;-53
2021/08/03 05:57:12;;;;;;;3.38;1.00;;;;;;;25.52;47.32;99023.28;5090750;28;20031;-47
2021/08/03 05:59:37;;;;;;;5.97;0.98;;;;;;;25.63;46.82;99021.56;5090844;28;20032;-49
2021/08/03 06:02:03;;;;;;;2.65;0.73;;;;;;;25.81;46.26;99017.84;5090565;28;20032;-49
2021/08/03 06:04:28;;;;;;;2.97;1.05;;;;;;;26.07;45.88;99013.66;5091043;28;20066;-53
2021/08/03 06:06:57;;;;;;;7.28;1.25;;;;;;;26.41;44.46;99017.56;5089829;28;20024;-49
2021/08/03 06:09:27;;;;;;;0.80;0.80;;;;;;;26.62;43.99;99018.72;5091097;28;20107;-48
2021/08/03 06:11:53;;;;;;;4.40;0.95;;;;;;;26.90;42.44;99008.75;5090416;28;20020;-47
2021/08/03 06:14:42;;;;;;;1.33;0.65;;;;;;;27.98;41.49;99020.31;5089648;28;20020;-50
2021/08/03 06:17:22;;;;;;;3.22;0.60;;;;;;;28.20;39.59;99036.78;5068240;27;20375;-51
2021/08/03 06:19:50;;;;;;;2.10;0.73;;;;;;;28.08;39.80;99042.41;5067709;28;20037;-49
2021/08/03 06:22:17;;;;;;;1.27;0.75;;;;;;;27.92;39.95;99052.44;5068359;28;20029;-49
2021/08/03 06:24:44;;;;;;;2.80;0.90;;;;;;;27.61;40.60;99063.06;5067908;28;20258;-50
2021/08/03 06:27:15;;;;;;;2.25;0.82;;;;;;;27.27;41.65;99062.31;5067647;28;20037;-47
2021/08/03 06:29:41;;;;;;;1.45;0.68;;;;;;;26.63;42.58;99056.09;5067388;28;20032;-53
2021/08/03 06:32:08;;;;;;;3.78;0.90;;;;;;;26.62;42.67;99049.75;5067345;28;20036;-44
2021/08/03 06:34:37;;;;;;;3.55;0.90;;;;;;;28.06;40.53;99055.59;5067800;28;20025;-46
2021/08/03 06:37:03;;;;;;;5.72;1.00;;;;;;;29.51;37.14;99054.03;5067334;28;20048;-50
2021/08/03 06:39:29;;;;;;;4.47;1.02;;;;;;;31.14;33.87;99049.34;5067236;28;20413;-50
2021/08/03 06:42:12;;;;;;;2.95;0.80;;;;;;;32.02;33.05;99062.91;5068044;28;20111;-46
2021/08/03 06:44:47;;;;;;;2.58;1.10;;;;;;;33.07;30.62;99067.44;5067657;28;20425;-47
2021/08/03 06:47:19;;;;;;;6.18;1.08;;;;;;;34.56;27.82;99056.69;5067392;28;20054;-48
2021/08/03 06:49:48;;;;;;;2.72;1.10;;;;;;;36.78;24.67;99054.13;5067538;28;20035;-47
2021/08/03 06:52:16;;;;;;;4.75;1.05;;;;;;;39.52;21.19;99058.81;5067323;28;20060;-48
2021/08/03 06:54:48;;;;;;;1.52;0.85;;;;;;;41.30;19.74;99063.47;5067425;28;20111;-59
2021/08/03 06:57:16;;;;;;;6.70;1.30;;;;;;;41.27;18.71;99066.16;5066584;28;20032;-47
2021/08/03 06:59:49;;;;;;;3.88;1.10;;;;;;;39.55;21.77;99066.59;5067185;28;20457;-56
2021/08/03 07:02:41;;;;;;;5.80;1.10;;;;;;;37.32;25.95;99083.97;5067643;28;20083;-50
2021/08/03 07:05:09;;;;;;;3.05;1.10;;;;;;;34.26;27.08;99081.03;5066318;28;20099;-52
2021/08/03 07:07:35;;;;;;;4.88;1.20;;;;;;;32.57;28.97;99080.59;5067356;28;20112;-49
2021/08/03 07:10:04;;;;;;;4.45;1.00;;;;;;;32.08;30.14;99083.09;5049471;28;20036;-49
2021/08/03 07:12:30;;;;;;;1.48;0.85;;;;;;;31.47;31.23;99083.06;5047946;28;20037;-45
2021/08/03 07:14:57;;;;;;;3.22;0.88;;;;;;;30.67;31.89;99078.97;5046505;28;20457;-47
2021/08/03 07:17:29;;;;;;;1.92;0.98;;;;;;;29.96;33.55;99075.75;5046713;28;20065;-50
2021/08/03 07:19:57;;;;;;;4.07;1.15;;;;;;;31.66;31.53;99082.41;5047344;28;20066;-46
2021/08/03 07:22:24;;;;;;;4.57;1.10;;;;;;;32.16;30.44;99084.41;5046574;28;20090;-45
2021/08/03 07:24:51;;;;;;;2.95;0.80;;;;;;;31.76;30.51;99081.53;5047155;28;20488;-49
2021/08/03 07:27:16;;;;;;;1.70;0.73;;;;;;;31.27;30.25;99081.16;5041764;28;20533;-45
2021/08/03 07:29:42;;;;;;;5.25;0.70;;;;;;;30.86;30.44;99086.69;5033996;28;20112;-48
2021/08/03 07:32:09;;;;;;;0.88;0.60;;;;;;;31.08;30.26;99076.16;5033540;28;20030;-50
2021/08/03 07:34:39;;;;;;;4.20;0.88;;;;;;;31.12;30.87;99081.97;5033286;28;20041;-51
2021/08/03 07:37:06;;;;;;;4.38;0.90;;;;;;;30.54;31.33;99085.00;5032526;28;20033;-50
2021/08/03 07:39:32;;;;;;;2.67;0.57;;;;;;;29.93;33.08;99092.84;5033214;28;20041;-51
2021/08/03 07:41:58;;;;;;;1.15;0.70;;;;;;;29.23;33.67;99091.09;5033200;28;20075;-50
2021/08/03 07:44:24;;;;;;;2.50;0.77;;;;;;;28.75;33.96;99107.50;5033411;28;20033;-52
2021/08/03 07:46:50;;;;;;;3.42;0.63;;;;;;;30.43;31.33;99095.22;5033283;28;20056;-48
2021/08/03 07:49:16;;;;;;;1.20;0.73;;;;;;;31.10;29.97;99097.19;5033341;28;20045;-48
2021/08/03 07:51:42;;;;;;;2.55;0.80;;;;;;;31.27;29.55;99089.44;5033237;28;20426;-51
2021/08/03 07:54:07;;;;;;;1.27;0.95;;;;;;;31.03;30.41;99090.00;5033566;28;20038;-50
2021/08/03 07:56:32;;;;;;;1.15;0.75;;;;;;;30.78;31.00;99102.72;5033518;28;20083;-50
2021/08/03 07:58:58;;;;;;;3.75;1.08;;;;;;;31.33;30.08;99095.81;5031969;28;20025;-53
2021/08/03 08:01:24;;;;;;;4.32;1.08;;;;;;;32.28;28.51;99097.91;5038991;28;20032;-51
2021/08/03 08:03:50;;;;;;;2.35;0.88;;;;;;;32.27;28.45;99099.03;5045048;28;20025;-52
2021/08/03 08:06:15;;;;;;;2.60;1.00;;;;;;;31.49;29.72;99093.81;5040293;28;20120;-49
2021/08/03 08:08:42;;;;;;;2.05;1.50;;;;;;;30.54;30.88;99072.03;5046969;28;20111;-50
2021/08/03 08:11:08;;;;;;;6.80;1.30;;;;;;;30.12;32.04;99109.75;5035584;28;20044;-48
2021/08/03 08:13:33;;;;;;;3.08;1.25;;;;;;;29.51;32.65;99102.88;5046421;28;20112;-51
2021/08/03 08:15:59;;;;;;;2.90;1.17;;;;;;;28.96;34.05;99119.56;5040995;28;20410;-53
2021/08/03 08:18:24;;;;;;;3.03;1.17;;;;;;;28.43;34.88;99122.09;5039220;28;20057;-49
2021/08/03 08:20:50;;;;;;;5.38;1.40;;;;;;;27.90;35.88;99120.63;5048085;28;20362;-50
2021/08/03 08:23:16;;;;;;;1.58;0.90;;;;;;;27.59;37.10;99128.47;5031166;28;20056;-56
2021/08/03 08:25:42;;;;;;;2.45;1.10;;;;;;;27.86;36.66;99119.47;5030930;28;20128;-56
2021/08/03 08:28:08;;;;;;;2.80;1.10;;;;;;;28.36;35.42;99117.63;5031047;28;20034;-53
2021/08/03 08:30:35;;;;;;;3.65;1.10;;;;;;;28.92;33.96;99111.00;5034064;28;20100;-54
2021/08/03 08:33:01;;;;;;;1.17;0.80;;;;;;;29.33;32.76;99104.94;5042390;28;20465;-51
2021/08/03 08:35:26;;;;;;;2.80;0.80;;;;;;;29.44;31.66;99081.03;5046888;28;20037;-53
2021/08/03 08:37:52;;;;;;;2.80;1.00;;;;;;;29.71;31.55;99095.81;5030585;28;20067;-53
2021/08/03 08:40:17;;;;;;;2.25;1.02;;;;;;;29.93;31.82;99082.66;5030862;28;20044;-52
2021/08/03 08:42:44;;;;;;;1.40;1.13;;;;;;;29.92;31.80;99102.22;5032687;28;20037;-53
2021/08/03 08:45:11;;;;;;;8.60;1.25;;;;;;;29.50;32.71;99112.25;5046107;28;20056;-49
2021/08/03 08:47:37;;;;;;;4.28;0.93;;;;;;;28.88;34.24;99118.13;5033269;28;20039;-48
2021/08/03 08:50:06;;;;;;;4.30;0.98;;;;;;;28.29;36.04;99122.47;5040610;28;20105;-50
2021/08/03 08:52:33;;;;;;;2.28;0.98;;;;;;;27.68;36.99;99114.28;5036305;28;20083;-47
2021/08/03 08:54:59;;;;;;;1.20;1.00;;;;;;;27.23;37.95;99119.66;5030287;28;20037;-51
2021/08/03 08:57:25;;;;;;;2.20;1.00;;;;;;;26.79;38.34;99112.94;5038817;28;20024;-51
2021/08/03 08:59:51;;;;;;;1.90;0.85;;;;;;;26.53;39.38;99116.31;5037551;28;20404;-54
2021/08/03 09:02:16;;;;;;;1.23;0.80;;;;;;;26.54;39.54;99118.78;5029971;28;20025;-48
2021/08/03 09:04:46;;;;;;;5.78;1.08;;;;;;;26.85;38.54;99126.78;5032176;28;20033;-60
2021/08/03 09:07:12;;;;;;;1.65;1.08;;;;;;;27.15;37.96;99120.09;5034224;28;20083;-55
2021/08/03 09:09:45;;;;;;;2.25;0.80;;;;;;;27.50;37.09;99129.97;5044009;28;20420;-49
2021/08/03 09:12:12;;;;;;;2.15;1.02;;;;;;;27.17;37.12;99117.94;5065483;28;20051;-50
2021/08/03 09:14:43;;;;;;;2.67;1.17;;;;;;;27.17;36.72;99126.19;5030408;28;20037;-50
2021/08/03 09:17:09;;;;;;;3.72;0.93;;;;;;;27.21;36.27;99130.94;5037024;28;20053;-51
2021/08/03 09:19:39;;;;;;;2.55;0.90;;;;;;;27.48;35.68;99132.13;5035666;28;20036;-53
2021/08/03 09:22:25;;;;;;;4.07;1.00;;;;;;;27.73;36.07;99139.09;5030015;28;20414;-49
2021/08/03 09:24:52;;;;;;;5.00;1.20;;;;;;;27.63;35.47;99143.38;5030326;28;20040;-51
2021/08/03 09:27:39;;;;;;;1.73;1.10;;;;;;;27.57;36.31;99158.16;5033854;28;20036;-51
2021/08/03 09:30:10;;;;;;;3.00;1.20;;;;;;;27.39;36.00;99148.25;5042448;28;20048;-50
2021/08/03 09:32:37;;;;;;;1.08;0.90;;;;;;;27.46;36.18;99153.53;5036201;28;20119;-54
2021/08/03 09:35:04;;;;;;;3.08;1.25;;;;;;;27.47;35.87;99157.94;5030814;28;20043;-45
2021/08/03 09:37:35;;;;;;;3.05;1.17;;;;;;;27.73;35.16;99152.84;5035556;28;20112;-55
2021/08/03 09:40:01;;;;;;;4.40;1.27;;;;;;;27.91;35.17;99159.97;5039850;28;20404;-55
2021/08/03 09:42:27;;;;;;;4.45;1.20;;;;;;;27.90;35.25;99145.38;5043330;28;20040;-52
2021/08/03 09:45:02;;;;;;;1.20;1.02;;;;;;;28.04;35.56;99162.34;5033126;28;20033;-53
2021/08/03 09:47:30;;;;;;;1.45;1.20;;;;;;;27.82;34.74;99162.34;5044661;28;20473;-52
2021/08/03 09:50:01;;;;;;;1.15;1.05;;;;;;;27.92;34.31;99173.47;5038257;28;20037;-54
2021/08/03 09:52:33;;;;;;;3.05;1.00;;;;;;;27.99;34.26;99177.97;5037781;28;20112;-50
2021/08/03 09:55:19;;;;;;;4.30;0.98;;;;;;;27.86;34.14;99168.19;5046185;28;20115;-49
2021/08/03 09:57:45;;;;;;;;;;;;;;;27.92;34.57;99162.47;5042983;28;20025;-48
2021/08/03 10:00:25;;;;;;;1.15;1.05;;;;;;;27.36;34.90;99166.06;5041054;28;19909;-51
2021/08/03 10:02:53;;;;;;;3.22;1.05;;;;;;;26.84;34.88;99172.59;5033730;28;20535;-50
2021/08/03 10:05:20;;;;;;;1.27;0.95;;;;;;;26.67;35.16;99169.81;5017102;28;20112;-48
2021/08/03 10:07:45;;;;;;;2.90;0.95;;;;;;;26.66;35.07;99173.63;5042543;28;20108;-50
2021/08/03 10:10:12;;;;;;;2.55;0.90;;;;;;;26.51;34.93;99139.31;5040759;28;20104;-50
2021/08/03 10:12:39;;;;;;;2.30;1.02;;;;;;;26.65;34.72;99171.97;5035840;28;20033;-47
2021/08/03 10:15:08;;;;;;;2.03;0.90;;;;;;;26.65;35.02;99166.47;5045560;28;20029;-49
2021/08/03 10:17:34;;;;;;;2.88;1.23;;;;;;;26.70;35.63;99177.56;5035858;28;20116;-48
2021/08/03 10:20:00;;;;;;;2.50;1.10;;;;;;;26.62;36.53;99170.53;5040351;28;20112;-55
2021/08/03 10:22:34;;;;;;;1.52;1.33;;;;;;;26.70;35.66;99185.78;5042351;28;20055;-49
2021/08/03 10:25:02;;;;;;;2.13;1.40;;;;;;;26.47;35.87;99184.81;5032996;28;20137;-47
2021/08/03 10:27:52;;;;;;;7.03;1.33;;;;;;;26.45;35.91;99184.22;5044198;28;20472;-50
2021/08/03 10:30:27;;;;;;;1.50;1.30;;;;;;;26.39;35.98;99163.25;5041371;28;20159;-48
2021/08/03 10:32:53;;;;;;;2.92;1.33;;;;;;;26.25;34.83;99159.13;5033675;28;20033;-46
2021/08/03 10:35:40;;;;;;;2.33;1.20;;;;;;;26.55;35.66;99177.28;5044487;28;20075;-48
2021/08/03 10:38:09;;;;;;;3.85;1.20;;;;;;;26.49;35.41;99179.09;5038045;28;20029;-50
2021/08/03 10:40:43;;;;;;;4.18;1.33;;;;;;;26.73;35.02;99185.28;5035345;28;20473;-48
2021/08/03 10:43:33;;;;;;;1.83;1.42;;;;;;;26.85;34.31;99188.00;5046587;28;20050;-50
2021/08/03 10:46:07;;;;;;;3.08;1.42;;;;;;;26.99;34.09;99182.22;5038238;28;20082;-53
2021/08/03 10:48:39;;;;;;;2.88;1.63;;;;;;;27.14;33.53;99176.13;5035892;28;20496;-49
2021/08/03 10:51:13;;;;;;;3.78;1.67;;;;;;;27.25;33.90;99177.13;5045812;28;20048;-61
2021/08/03 10:53:51;;;;;;;3.20;1.93;;;;;;;27.27;34.00;99164.81;5036366;28;20515;-52
2021/08/03 10:56:17;;;;;;;2.65;1.77;;;;;;;27.00;34.04;99162.72;5047592;28;20293;-49
2021/08/03 10:58:42;;;;;;;2.45;1.60;;;;;;;27.02;33.67;99155.09;5033040;28;20061;-52
2021/08/03 11:01:08;;;;;;;2.67;1.52;;;;;;;27.18;33.25;99163.56;5046149;28;20060;-51
2021/08/03 11:03:36;;;;;;;1.60;1.50;;;;;;;27.29;33.15;99164.56;5037969;28;20465;-50
2021/08/03 11:06:10;;;;;;;2.97;1.40;;;;;;;27.41;33.19;99168.06;5036189;28;20033;-49
2021/08/03 11:08:48;;;;;;;2.78;1.55;;;;;;;27.29;33.02;99170.91;5028801;28;20037;-49
2021/08/03 11:11:27;;;;;;;4.63;2.00;;;;;;;27.31;33.67;99173.38;5049138;28;20491;-54
2021/08/03 11:14:04;;;;;;;1.88;1.60;;;;;;;27.08;33.69;99154.09;5041132;28;20389;-58
2021/08/03 11:16:30;;;;;;;2.13;1.92;;;;;;;27.11;33.11;99160.97;5038730;28;20133;-61
2021/08/03 11:19:01;;;;;;;1.90;1.65;;;;;;;27.16;33.83;99158.34;5048844;28;20342;-56
2021/08/03 11:21:31;;;;;;;3.67;1.70;;;;;;;27.15;33.89;99164.06;5036395;28;20029;-51
2021/08/03 11:24:00;;;;;;;2.97;1.88;;;;;;;26.99;33.95;99157.50;5043380;28;20404;-57
2021/08/03 11:26:37;;;;;;;2.05;1.63;;;;;;;26.85;34.02;99174.28;5045672;28;20033;-52
2021/08/03 11:29:12;;;;;;;4.53;1.70;;;;;;;26.75;34.64;99163.91;5036193;28;20494;-56
2021/08/03 11:31:41;;;;;;;3.53;1.90;;;;;;;26.75;34.44;99171.34;5046274;28;20389;-53
2021/08/03 11:34:07;;;;;;;2.33;1.73;;;;;;;26.73;34.67;99160.56;5042488;28;20025;-56
2021/08/03 11:36:34;;;;;;;4.20;1.50;;;;;;;26.73;34.14;99157.03;5038492;28;20037;-54
2021/08/03 11:38:59;;;;;;;2.00;1.70;;;;;;;26.80;35.19;99164.03;5048413;28;20033;-50
2021/08/03 11:41:25;;;;;;;4.28;1.60;;;;;;;26.84;34.50;99161.59;5036740;28;20111;-45